createdAt,value
2019-04-21T00:01:57.791Z,15.40
2019-04-21T00:04:40.699Z,15.30
2019-04-21T00:07:14.491Z,15.20
2019-04-21T00:12:19.672Z,15.00
2019-04-21T00:14:39.576Z,15.00
2019-04-21T00:17:05.366Z,14.90
2019-04-21T00:19:38.985Z,14.90
2019-04-21T00:22:21.545Z,14.90
2019-04-21T00:24:51.900Z,14.80
2019-04-21T00:27:24.561Z,14.80
2019-04-21T00:29:58.842Z,14.70
2019-04-21T00:32:22.192Z,14.70
2019-04-21T00:34:41.086Z,14.60
2019-04-21T00:37:20.119Z,14.50
2019-04-21T00:40:02.236Z,14.40
2019-04-21T00:42:31.552Z,14.40
2019-04-21T00:44:55.658Z,14.30
2019-04-21T00:47:30.379Z,14.30
2019-04-21T00:50:00.338Z,14.20
2019-04-21T00:55:29.642Z,14.00
2019-04-21T00:57:51.898Z,13.90
2019-04-21T01:00:18.696Z,13.90
2019-04-21T01:02:53.317Z,13.80
2019-04-21T01:05:16.938Z,13.70
2019-04-21T01:07:45.539Z,13.70
2019-04-21T01:10:12.195Z,13.60
2019-04-21T01:12:53.116Z,13.60
2019-04-21T01:15:26.042Z,13.50
2019-04-21T01:17:48.116Z,13.50
2019-04-21T01:20:12.170Z,13.40
2019-04-21T01:22:25.349Z,13.40
2019-04-21T01:25:04.705Z,13.40
2019-04-21T01:27:48.310Z,13.30
2019-04-21T01:30:18.819Z,13.30
2019-04-21T01:32:51.230Z,13.20
2019-04-21T01:35:19.346Z,13.10
2019-04-21T01:37:49.635Z,13.00
2019-04-21T01:40:22.867Z,12.90
2019-04-21T01:42:45.794Z,12.90
2019-04-21T01:45:18.877Z,12.80
2019-04-21T01:47:40.516Z,12.80
2019-04-21T01:50:05.707Z,12.80
2019-04-21T01:52:51.420Z,12.70
2019-04-21T01:55:41.379Z,12.60
2019-04-21T01:58:02.274Z,12.60
2019-04-21T02:00:51.842Z,12.60
2019-04-21T02:03:36.249Z,12.60
2019-04-21T02:05:55.330Z,12.50
2019-04-21T02:08:18.229Z,12.50
2019-04-21T02:10:56.073Z,12.50
2019-04-21T02:13:17.578Z,12.50
2019-04-21T02:15:48.977Z,12.40
2019-04-21T02:18:20.424Z,12.40
2019-04-21T02:20:40.164Z,12.40
2019-04-21T02:23:28.262Z,12.40
2019-04-21T02:25:50.610Z,12.40
2019-04-21T02:28:30.450Z,12.40
2019-04-21T02:31:10.921Z,12.30
2019-04-21T02:36:15.436Z,12.20
2019-04-21T02:43:30.891Z,12.00
2019-04-21T02:46:10.300Z,11.90
2019-04-21T02:50:53.374Z,11.80
2019-04-21T02:54:03.786Z,11.80
2019-04-21T02:56:00.540Z,11.70
2019-04-21T03:01:23.725Z,11.60
2019-04-21T03:03:52.517Z,11.50
2019-04-21T03:06:39.388Z,11.50
2019-04-21T03:09:18.454Z,11.50
2019-04-21T03:11:35.026Z,11.50
2019-04-21T03:14:16.116Z,11.40
2019-04-21T03:16:31.170Z,11.30
2019-04-21T03:19:20.026Z,11.20
2019-04-21T03:21:38.771Z,11.20
2019-04-21T03:24:36.062Z,11.20
2019-04-21T03:26:55.857Z,11.10
2019-04-21T03:29:29.542Z,11.10
2019-04-21T03:39:09.474Z,11.00
2019-04-21T03:41:48.322Z,10.90
2019-04-21T03:44:16.609Z,10.80
2019-04-21T03:49:23.085Z,10.80
2019-04-21T03:51:50.567Z,10.80
2019-04-21T03:54:20.149Z,10.70
2019-04-21T03:57:03.183Z,10.70
2019-04-21T04:01:58.371Z,10.60
2019-04-21T04:04:28.260Z,10.60
2019-04-21T04:07:14.338Z,10.50
2019-04-21T04:09:36.792Z,10.50
2019-04-21T04:14:38.854Z,10.50
2019-04-21T04:19:45.407Z,10.30
2019-04-21T04:22:22.862Z,10.30
2019-04-21T04:24:39.590Z,10.30
2019-04-21T04:27:07.916Z,10.30
2019-04-21T04:29:32.075Z,10.20
2019-04-21T04:34:45.322Z,10.10
2019-04-21T04:37:12.341Z,10.10
2019-04-21T04:42:31.996Z,10.10
2019-04-21T04:47:16.844Z,10.00
2019-04-21T04:49:49.782Z,10.00
2019-04-21T04:52:31.145Z,10.00
2019-04-21T04:57:18.187Z,10.00
2019-04-21T04:59:43.404Z,10.00
2019-04-21T05:02:23.950Z,10.00
2019-04-21T05:07:15.113Z,10.20
2019-04-21T05:12:08.961Z,10.20
2019-04-21T05:17:23.005Z,10.30
2019-04-21T05:19:57.419Z,10.40
2019-04-21T05:22:17.210Z,10.50
2019-04-21T05:24:36.064Z,10.50
2019-04-21T05:27:03.200Z,10.60
2019-04-21T05:29:37.557Z,10.60
2019-04-21T05:32:13.262Z,10.60
2019-04-21T05:34:39.389Z,10.70
2019-04-21T05:37:14.230Z,10.80
2019-04-21T05:39:45.163Z,10.90
2019-04-21T05:42:07.814Z,10.90
2019-04-21T05:47:25.010Z,11.00
2019-04-21T05:49:57.186Z,11.10
2019-04-21T05:52:23.191Z,11.20
2019-04-21T05:57:29.106Z,11.40
2019-04-21T05:59:53.191Z,11.50
2019-04-21T06:05:14.493Z,11.70
2019-04-21T06:07:38.312Z,11.70
2019-04-21T06:09:59.456Z,11.90
2019-04-21T06:12:36.113Z,11.90
2019-04-21T06:15:01.027Z,12.00
2019-04-21T06:17:34.875Z,12.10
2019-04-21T06:20:02.948Z,12.20
2019-04-21T06:22:29.158Z,12.30
2019-04-21T06:25:31.173Z,12.40
2019-04-21T06:27:32.731Z,12.50
2019-04-21T06:30:01.891Z,12.60
2019-04-21T06:32:47.088Z,12.70
2019-04-21T06:37:46.875Z,12.90
2019-04-21T06:42:41.581Z,13.20
2019-04-21T06:45:31.279Z,13.30
2019-04-21T06:47:42.268Z,13.40
2019-04-21T06:50:11.991Z,13.60
2019-04-21T06:55:12.500Z,13.90
2019-04-21T06:57:41.100Z,14.10
2019-04-21T07:00:06.444Z,14.20
2019-04-21T07:05:07.557Z,14.40
2019-04-21T07:07:35.614Z,14.60
2019-04-21T07:10:10.698Z,14.60
2019-04-21T07:12:37.242Z,14.60
2019-04-21T07:15:20.154Z,14.70
2019-04-21T07:22:44.629Z,15.00
2019-04-21T07:25:11.648Z,15.20
2019-04-21T07:27:43.084Z,15.30
2019-04-21T07:30:12.831Z,15.40
2019-04-21T07:32:40.226Z,15.50
2019-04-21T07:35:09.425Z,15.60
2019-04-21T07:37:41.349Z,15.70
2019-04-21T07:40:05.482Z,15.80
2019-04-21T07:42:32.531Z,16.00
2019-04-21T07:45:05.203Z,16.10
2019-04-21T07:47:53.456Z,16.40
2019-04-21T07:50:27.442Z,16.60
2019-04-21T07:53:05.048Z,16.70
2019-04-21T07:57:55.929Z,17.10
2019-04-21T08:00:38.967Z,17.20
2019-04-21T08:03:00.335Z,17.30
2019-04-21T08:05:35.546Z,17.40
2019-04-21T08:08:19.062Z,17.50
2019-04-21T08:10:28.019Z,17.70
2019-04-21T08:13:00.113Z,17.80
2019-04-21T08:15:34.061Z,18.00
2019-04-21T08:18:07.224Z,18.00
2019-04-21T08:20:34.836Z,18.20
2019-04-21T08:23:11.083Z,18.40
2019-04-21T08:25:42.012Z,18.60
2019-04-21T08:28:05.221Z,18.70
2019-04-21T08:30:37.818Z,18.90
2019-04-21T08:38:08.669Z,19.20
2019-04-21T08:43:09.146Z,19.50
2019-04-21T08:45:44.987Z,19.70
2019-04-21T08:48:10.152Z,19.70
2019-04-21T08:50:33.905Z,19.50
2019-04-21T08:53:11.355Z,19.50
2019-04-21T08:56:04.478Z,19.50
2019-04-21T08:58:52.286Z,19.50
2019-04-21T09:01:34.278Z,19.60
2019-04-21T09:04:18.532Z,19.80
2019-04-21T09:06:50.080Z,20.00
2019-04-21T09:09:03.624Z,20.10
2019-04-21T09:11:33.666Z,20.30
2019-04-21T09:14:01.427Z,20.50
2019-04-21T09:16:30.731Z,20.60
2019-04-21T09:18:59.442Z,20.70
2019-04-21T09:21:39.492Z,21.00
2019-04-21T09:24:05.617Z,21.20
2019-04-21T09:26:31.057Z,21.40
2019-04-21T09:28:57.130Z,21.60
2019-04-21T09:31:23.401Z,21.60
2019-04-21T09:33:50.830Z,21.50
2019-04-21T09:36:21.177Z,21.40
2019-04-21T09:38:57.658Z,21.40
2019-04-21T09:41:20.860Z,21.50
2019-04-21T09:43:51.828Z,21.80
2019-04-21T09:46:18.470Z,22.10
2019-04-21T09:48:55.671Z,22.30
2019-04-21T09:51:17.827Z,22.60
2019-04-21T09:53:53.585Z,22.80
2019-04-21T09:56:23.860Z,23.10
2019-04-21T09:58:50.290Z,23.00
2019-04-21T10:01:22.715Z,23.10
2019-04-21T10:03:52.023Z,23.30
2019-04-21T10:06:18.777Z,23.50
2019-04-21T10:08:51.554Z,23.50
2019-04-21T10:11:19.549Z,23.60
2019-04-21T10:13:48.627Z,23.70
2019-04-21T10:16:21.920Z,23.70
2019-04-21T10:18:50.497Z,23.70
2019-04-21T10:21:19.794Z,23.90
2019-04-21T10:23:48.260Z,24.10
2019-04-21T10:26:16.851Z,24.20
2019-04-21T10:28:46.770Z,23.90
2019-04-21T10:31:16.616Z,24.00
2019-04-21T10:33:46.271Z,24.00
2019-04-21T10:36:15.206Z,24.20
2019-04-21T10:38:49.666Z,24.40
2019-04-21T10:41:15.045Z,24.60
2019-04-21T10:43:45.103Z,24.70
2019-04-21T10:46:14.867Z,24.30
2019-04-21T10:48:43.480Z,24.40
2019-04-21T10:51:13.035Z,24.50
2019-04-21T10:53:43.154Z,24.50
2019-04-21T10:56:19.962Z,24.70
2019-04-21T10:58:42.758Z,24.80
2019-04-21T11:01:19.044Z,25.10
2019-04-21T11:03:53.130Z,25.30
2019-04-21T11:06:21.858Z,25.50
2019-04-21T11:08:54.096Z,25.60
2019-04-21T11:11:21.764Z,25.50
2019-04-21T11:13:50.708Z,25.70
2019-04-21T11:16:19.301Z,25.90
2019-04-21T11:18:48.293Z,26.10
2019-04-21T11:21:16.969Z,26.30
2019-04-21T11:23:45.900Z,26.40
2019-04-21T11:26:15.709Z,26.20
2019-04-21T11:28:45.205Z,26.10
2019-04-21T11:31:15.395Z,26.20
2019-04-21T11:33:45.301Z,26.40
2019-04-21T11:36:15.279Z,26.60
2019-04-21T11:39:08.581Z,26.70
2019-04-21T11:41:27.999Z,27.00
2019-04-21T11:43:57.174Z,27.20
2019-04-21T11:46:26.769Z,27.50
2019-04-21T11:48:55.333Z,27.70
2019-04-21T11:51:24.905Z,27.50
2019-04-21T11:53:54.874Z,27.70
2019-04-21T11:56:23.522Z,27.90
2019-04-21T11:58:51.970Z,28.20
2019-04-21T12:01:21.308Z,28.40
2019-04-21T12:03:49.906Z,28.40
2019-04-21T12:06:19.391Z,28.50
2019-04-21T12:08:50.974Z,28.70
2019-04-21T12:11:18.137Z,28.80
2019-04-21T12:13:47.841Z,28.70
2019-04-21T12:16:17.014Z,28.80
2019-04-21T12:18:47.071Z,29.00
2019-04-21T12:21:15.857Z,29.20
2019-04-21T12:23:44.791Z,29.20
2019-04-21T12:26:13.911Z,28.90
2019-04-21T12:28:43.780Z,29.10
2019-04-21T12:31:14.105Z,29.40
2019-04-21T12:33:44.151Z,29.40
2019-04-21T12:36:13.780Z,29.80
2019-04-21T12:38:48.998Z,30.00
2019-04-21T12:41:12.896Z,30.20
2019-04-21T12:43:42.552Z,30.40
2019-04-21T12:46:11.991Z,30.30
2019-04-21T12:48:41.987Z,30.60
2019-04-21T12:51:12.170Z,31.10
2019-04-21T12:53:41.572Z,32.20
2019-04-21T12:56:11.595Z,33.20
2019-04-21T12:58:41.558Z,33.40
2019-04-21T13:01:10.129Z,33.20
2019-04-21T13:03:39.752Z,33.40
2019-04-21T13:06:09.757Z,33.20
2019-04-21T13:08:45.700Z,32.80
2019-04-21T13:11:09.601Z,32.90
2019-04-21T13:13:39.862Z,33.10
2019-04-21T13:16:09.632Z,33.50
2019-04-21T13:18:39.468Z,34.40
2019-04-21T13:21:08.312Z,34.60
2019-04-21T13:23:39.030Z,34.30
2019-04-21T13:26:08.389Z,34.30
2019-04-21T13:28:38.078Z,34.30
2019-04-21T13:31:06.576Z,34.10
2019-04-21T13:33:35.321Z,35.20
2019-04-21T13:36:04.946Z,35.70
2019-04-21T13:38:41.915Z,34.80
2019-04-21T13:41:22.725Z,35.20
2019-04-21T13:43:37.135Z,36.10
2019-04-21T13:46:07.937Z,36.70
2019-04-21T13:48:37.011Z,36.80
2019-04-21T13:51:05.412Z,37.00
2019-04-21T13:53:34.948Z,36.80
2019-04-21T13:56:04.695Z,36.60
2019-04-21T13:58:34.477Z,36.60
2019-04-21T14:01:03.556Z,37.30
2019-04-21T14:03:33.305Z,37.10
2019-04-21T14:06:02.577Z,37.60
2019-04-21T14:08:31.310Z,37.60
2019-04-21T14:10:59.941Z,38.00
2019-04-21T14:13:28.380Z,36.70
2019-04-21T14:15:57.962Z,36.80
2019-04-21T14:18:26.908Z,37.50
2019-04-21T14:20:55.600Z,37.40
2019-04-21T14:23:32.514Z,37.00
2019-04-21T14:25:55.472Z,36.60
2019-04-21T14:28:24.183Z,37.00
2019-04-21T14:30:52.658Z,36.40
2019-04-21T14:33:23.429Z,36.90
2019-04-21T14:35:52.642Z,37.20
2019-04-21T14:38:22.482Z,36.40
2019-04-21T14:40:52.139Z,37.00
2019-04-21T14:43:21.694Z,38.30
2019-04-21T14:45:54.801Z,39.10
2019-04-21T14:48:25.303Z,40.10
2019-04-21T14:51:13.884Z,40.50
2019-04-21T14:53:53.945Z,41.30
2019-04-21T14:56:22.403Z,41.20
2019-04-21T14:58:51.383Z,40.10
2019-04-21T15:01:19.883Z,38.40
2019-04-21T15:03:49.922Z,36.50
2019-04-21T15:06:19.009Z,34.40
2019-04-21T15:08:47.517Z,33.40
2019-04-21T15:11:16.109Z,33.10
2019-04-21T15:13:45.827Z,33.70
2019-04-21T15:16:15.082Z,33.80
2019-04-21T15:18:44.531Z,33.30
2019-04-21T15:21:13.317Z,33.00
2019-04-21T15:23:42.438Z,32.60
2019-04-21T15:26:12.242Z,32.30
2019-04-21T15:28:42.423Z,32.30
2019-04-21T15:31:12.739Z,31.80
2019-04-21T15:33:41.309Z,31.20
2019-04-21T15:36:11.080Z,30.60
2019-04-21T15:38:40.128Z,30.10
2019-04-21T15:41:10.730Z,29.60
2019-04-21T15:43:38.825Z,29.30
2019-04-21T15:46:08.879Z,28.90
2019-04-21T15:48:37.582Z,28.70
2019-04-21T15:51:08.569Z,28.60
2019-04-21T15:53:37.773Z,28.40
2019-04-21T15:56:15.223Z,28.30
2019-04-21T15:58:52.664Z,28.10
2019-04-21T16:01:39.032Z,27.90
2019-04-21T16:04:08.066Z,27.90
2019-04-21T16:06:37.318Z,27.70
2019-04-21T16:09:08.477Z,27.50
2019-04-21T16:11:37.910Z,27.30
2019-04-21T16:14:07.942Z,27.20
2019-04-21T16:16:36.575Z,27.20
2019-04-21T16:19:06.093Z,27.20
2019-04-21T16:21:38.359Z,27.30
2019-04-21T16:24:06.628Z,27.50
2019-04-21T16:26:35.286Z,27.70
2019-04-21T16:29:04.908Z,28.00
2019-04-21T16:31:34.273Z,28.20
2019-04-21T16:34:03.223Z,28.40
2019-04-21T16:36:31.906Z,28.60
2019-04-21T16:39:01.739Z,28.70
2019-04-21T16:41:30.459Z,28.70
2019-04-21T16:43:58.995Z,28.70
2019-04-21T16:46:27.770Z,28.80
2019-04-21T16:48:56.170Z,28.70
2019-04-21T16:51:24.628Z,28.80
2019-04-21T16:53:55.727Z,28.70
2019-04-21T16:56:26.920Z,28.50
2019-04-21T16:58:57.043Z,28.30
2019-04-21T17:01:28.127Z,28.00
2019-04-21T17:03:58.273Z,27.80
2019-04-21T17:06:27.075Z,27.40
2019-04-21T17:08:56.703Z,27.20
2019-04-21T17:11:29.293Z,27.00
2019-04-21T17:13:56.563Z,26.80
2019-04-21T17:17:03.069Z,26.50
2019-04-21T17:19:05.224Z,26.40
2019-04-21T17:21:27.906Z,26.20
2019-04-21T17:23:56.714Z,26.10
2019-04-21T17:26:26.801Z,26.00
2019-04-21T17:28:56.607Z,25.80
2019-04-21T17:31:26.526Z,25.70
2019-04-21T17:34:01.969Z,25.60
2019-04-21T17:36:25.513Z,25.40
2019-04-21T17:38:54.300Z,25.30
2019-04-21T17:41:33.402Z,25.20
2019-04-21T17:43:54.377Z,25.10
2019-04-21T17:46:33.348Z,25.00
2019-04-21T17:48:52.931Z,24.90
2019-04-21T17:51:29.885Z,24.80
2019-04-21T17:54:13.551Z,24.80
2019-04-21T17:57:00.451Z,24.70
2019-04-21T17:59:35.927Z,24.60
2019-04-21T18:01:56.042Z,24.60
2019-04-21T18:04:28.848Z,24.50
2019-04-21T18:06:54.058Z,24.40
2019-04-21T18:09:34.875Z,24.20
2019-04-21T18:11:59.422Z,24.10
2019-04-21T18:14:09.491Z,24.00
2019-04-21T18:16:42.755Z,23.90
2019-04-21T18:19:08.852Z,23.70
2019-04-21T18:21:52.940Z,23.50
2019-04-21T18:24:23.036Z,23.40
2019-04-21T18:26:57.372Z,23.20
2019-04-21T18:29:23.594Z,23.10
2019-04-21T18:31:53.833Z,22.90
2019-04-21T18:34:42.830Z,22.80
2019-04-21T18:37:18.598Z,22.60
2019-04-21T18:39:52.695Z,22.50
2019-04-21T18:42:47.743Z,22.30
2019-04-21T18:48:14.328Z,22.00
2019-04-21T18:50:46.235Z,21.80
2019-04-21T18:53:32.163Z,21.70
2019-04-21T18:55:51.437Z,21.50
2019-04-21T18:58:18.081Z,21.40
2019-04-21T19:00:48.614Z,21.20
2019-04-21T19:03:25.287Z,21.20
2019-04-21T19:05:53.169Z,21.00
2019-04-21T19:08:30.681Z,20.90
2019-04-21T19:11:08.510Z,20.70
2019-04-21T19:13:54.514Z,20.60
2019-04-21T19:16:28.360Z,20.50
2019-04-21T19:18:48.290Z,20.40
2019-04-21T19:21:08.752Z,20.30
2019-04-21T19:23:45.620Z,20.20
2019-04-21T19:26:25.321Z,20.10
2019-04-21T19:28:47.180Z,20.00
2019-04-21T19:31:11.053Z,19.90
2019-04-21T19:33:33.348Z,19.80
2019-04-21T19:35:51.001Z,19.70
2019-04-21T19:38:30.143Z,19.60
2019-04-21T19:41:07.162Z,19.40
2019-04-21T19:43:41.652Z,19.30
2019-04-21T19:46:12.877Z,19.20
2019-04-21T19:48:44.569Z,19.20
2019-04-21T19:51:10.446Z,19.10
2019-04-21T19:53:35.664Z,19.10
2019-04-21T19:55:51.987Z,19.00
2019-04-21T19:58:31.222Z,18.90
2019-04-21T20:00:54.649Z,18.80
2019-04-21T20:03:21.179Z,18.70
2019-04-21T20:06:00.505Z,18.70
2019-04-21T20:08:32.594Z,18.60
2019-04-21T20:11:10.224Z,18.50
2019-04-21T20:13:56.889Z,18.40
2019-04-21T20:16:09.562Z,18.40
2019-04-21T20:18:27.270Z,18.40
2019-04-21T20:20:52.163Z,18.40
2019-04-21T20:23:27.739Z,18.30
2019-04-21T20:25:55.998Z,18.20
2019-04-21T20:28:34.510Z,18.10
2019-04-21T20:31:06.685Z,18.00
2019-04-21T20:38:31.213Z,17.90
2019-04-21T20:40:59.983Z,17.80
2019-04-21T20:43:44.523Z,17.70
2019-04-21T20:46:07.823Z,17.60
2019-04-21T20:48:41.475Z,17.50
2019-04-21T20:53:37.961Z,17.40
2019-04-21T20:56:02.376Z,17.40
2019-04-21T20:58:39.755Z,17.40
2019-04-21T21:01:25.407Z,17.30
2019-04-21T21:03:39.492Z,17.20
2019-04-21T21:06:08.023Z,17.10
2019-04-21T21:08:40.322Z,17.10
2019-04-21T21:11:06.852Z,17.00
2019-04-21T21:13:44.382Z,17.00
2019-04-21T21:18:59.550Z,16.90
2019-04-21T21:21:12.407Z,16.80
2019-04-21T21:23:44.015Z,16.70
2019-04-21T21:26:16.028Z,16.70
2019-04-21T21:28:37.462Z,16.60
2019-04-21T21:31:13.417Z,16.60
2019-04-21T21:33:50.748Z,16.50
2019-04-21T21:36:16.653Z,16.40
2019-04-21T21:38:42.941Z,16.40
2019-04-21T21:41:07.604Z,16.30
2019-04-21T21:43:28.712Z,16.30
2019-04-21T21:45:59.872Z,16.30
2019-04-21T21:48:40.846Z,16.20
2019-04-21T21:51:08.132Z,16.00
2019-04-21T21:53:28.851Z,15.90
2019-04-21T21:55:58.427Z,15.80
2019-04-21T21:58:33.115Z,15.70
2019-04-21T22:01:02.249Z,15.60
2019-04-21T22:03:33.460Z,15.60
2019-04-21T22:06:04.968Z,15.50
2019-04-21T22:08:28.264Z,15.50
2019-04-21T22:10:57.049Z,15.50
2019-04-21T22:13:34.048Z,15.50
2019-04-21T22:16:02.906Z,15.40
2019-04-21T22:18:44.025Z,15.40
2019-04-21T22:21:09.923Z,15.40
2019-04-21T22:23:36.780Z,15.40
2019-04-21T22:25:57.553Z,15.40
2019-04-21T22:28:27.427Z,15.30
2019-04-21T22:30:57.085Z,15.20
2019-04-21T22:33:25.976Z,15.10
2019-04-21T22:36:02.849Z,15.00
2019-04-21T22:38:38.873Z,14.90
2019-04-21T22:41:05.987Z,14.80
2019-04-21T22:43:32.460Z,14.70
2019-04-21T22:45:55.728Z,14.60
2019-04-21T22:48:27.261Z,14.60
2019-04-21T22:50:56.146Z,14.60
2019-04-21T22:53:29.121Z,14.50
2019-04-21T22:56:00.081Z,14.50
2019-04-21T22:58:31.705Z,14.40
2019-04-21T23:00:58.637Z,14.40
2019-04-21T23:03:28.160Z,14.30
2019-04-21T23:05:55.900Z,14.30
2019-04-21T23:08:31.770Z,14.30
2019-04-21T23:10:59.846Z,14.20
2019-04-21T23:13:25.962Z,14.10
2019-04-21T23:15:57.699Z,14.10
2019-04-21T23:18:40.083Z,13.90
2019-04-21T23:21:12.296Z,13.90
2019-04-21T23:23:44.179Z,13.90
2019-04-21T23:26:20.502Z,13.90
2019-04-21T23:28:45.616Z,13.90
2019-04-21T23:31:18.686Z,13.80
2019-04-21T23:33:27.545Z,13.80
2019-04-21T23:36:03.720Z,13.70
2019-04-21T23:38:33.155Z,13.70
2019-04-21T23:41:00.560Z,13.60
2019-04-21T23:43:30.036Z,13.50
2019-04-21T23:45:57.314Z,13.50
2019-04-21T23:48:36.409Z,13.50
2019-04-21T23:51:10.885Z,13.50
2019-04-21T23:53:26.139Z,13.40
2019-04-21T23:55:54.924Z,13.30
2019-04-21T23:58:26.419Z,13.30
